ADDS METAR Data INFO
IDs: Format: Raw Decoded Include TAF

Data at: 1950 UTC 14 Aug 2018

K5H4 141935Z AUTO 00000G14KT 10SM CLR 22/08 A3008 RMK AO2
K5H4 141915Z AUTO 35008KT 300V020 10SM CLR 21/08 A3008 RMK AO2
K5H4 141855Z AUTO 01007KT 330V040 10SM CLR 22/08 A3008 RMK AO2
K5H4 141835Z AUTO 03007KT 10SM CLR 21/08 A3008 RMK AO2
K5H4 141815Z AUTO 01006KT 10SM CLR 20/09 A3008 RMK AO2 LTG DSNT S
K5H4 141755Z AUTO 02008KT 10SM CLR 20/09 A3009 RMK AO2
K5H4 141735Z AUTO 36008G13KT 310V040 10SM CLR 19/09 A3010 RMK AO2
K5H4 141715Z AUTO 34009KT 10SM CLR 19/09 A3010 RMK AO2
K5H4 141655Z AUTO 04009KT 10SM CLR 19/09 A3011 RMK AO2
K5H4 141635Z AUTO 34007KT 330V030 10SM CLR 19/09 A3011 RMK AO2
K5H4 141615Z AUTO 35007KT 320V030 10SM CLR 19/09 A3011 RMK AO2 LTG DSNT SE AND SW
K5H4 141555Z AUTO 36007KT 10SM CLR 18/09 A3011 RMK AO2
K5H4 141535Z AUTO 01009KT 10SM CLR 17/09 A3012 RMK AO2
K5H4 141515Z AUTO 35006KT 10SM CLR 16/10 A3013 RMK AO2
K5H4 141455Z AUTO 32006KT 10SM CLR 15/10 A3012 RMK AO2
K5H4 141435Z AUTO 35006KT 10SM CLR 14/10 A3012 RMK AO2
K5H4 141415Z AUTO 35005KT 10SM CLR 14/11 A3011 RMK AO2
K5H4 141355Z AUTO 36004KT 10SM CLR 13/11 A3011 RMK AO2
K5H4 141335Z AUTO 00000KT 10SM CLR 12/12 A3011 RMK AO2
K5H4 141315Z AUTO 30004KT 10SM CLR 11/11 A3011 RMK AO2
K5H4 141255Z AUTO 00000KT 10SM CLR 10/10 A3011 RMK AO2
K5H4 141235Z AUTO 33004KT 10SM CLR 09/09 A3010 RMK AO2
K5H4 141215Z AUTO 35003KT 10SM CLR 09/09 A3009 RMK AO2
K5H4 141155Z AUTO 00000KT 10SM CLR 08/08 A3009 RMK AO2
K5H4 141135Z AUTO 00000KT 10SM CLR 08/08 A3010 RMK AO2
K5H4 141115Z AUTO 00000KT 10SM CLR 09/09 A3010 RMK AO2
K5H4 141055Z AUTO 00000KT 10SM FEW070 FEW100 09/09 A3010 RMK AO2
K5H4 141035Z AUTO 00000KT 10SM SCT070 SCT110 10/10 A3010 RMK AO2
K5H4 141015Z AUTO 00000KT 10SM FEW070 BKN110 10/10 A3011 RMK AO2
K5H4 140955Z AUTO 02005KT 10SM FEW070 OVC110 11/11 A3011 RMK AO2
K5H4 140935Z AUTO 02004KT 10SM SCT070 OVC110 12/12 A3011 RMK AO2
K5H4 140915Z AUTO 03007KT 10SM BKN065 BKN120 12/12 A3010 RMK AO2
K5H4 140855Z AUTO 01006KT 10SM BKN065 OVC120 12/12 A3009 RMK AO2
K5H4 140835Z AUTO 36006KT 10SM BKN065 OVC120 12/12 A3007 RMK AO2
K5H4 140815Z AUTO 35005KT 10SM BKN065 BKN120 12/13 A3008 RMK AO2
K5H4 140755Z AUTO 35007KT 10SM OVC065 13/13 A3008 RMK AO2
K5H4 140735Z AUTO 35007KT 10SM OVC060 13/13 A3008 RMK AO2
K5H4 140715Z AUTO 34007KT 10SM OVC060 13/13 A3008 RMK AO2
K5H4 140655Z AUTO 33007KT 10SM SCT065 BKN120 14/14 A3008 RMK AO2
K5H4 140635Z AUTO 34007KT 10SM FEW060 OVC120 14/14 A3008 RMK AO2
K5H4 140615Z AUTO 34006KT 10SM SCT060 OVC120 15/14 A3008 RMK AO2 LTG DSNT SE
K5H4 140555Z AUTO 34008KT 10SM SCT120 15/14 A3008 RMK AO2
K5H4 140535Z AUTO 33007KT 10SM FEW060 FEW120 14/14 A3007 RMK AO2
K5H4 140515Z AUTO 33008KT 10SM CLR 15/15 A3006 RMK AO2
K5H4 140455Z AUTO 33006KT 10SM BKN049 BKN120 15/15 A3006 RMK AO2
K5H4 140435Z AUTO 33008KT 10SM FEW026 BKN048 BKN070 15/15 A3006 RMK AO2
K5H4 140415Z AUTO 33008KT 7SM SCT025 SCT044 BKN070 15/15 A3006 RMK AO2
K5H4 140355Z AUTO 33010KT 10SM SCT045 BKN075 OVC120 16/15 A3006 RMK AO2
K5H4 140335Z AUTO 32006KT 10SM SCT046 SCT065 BKN120 15/15 A3007 RMK AO2
K5H4 140315Z AUTO 24004KT 10SM FEW043 SCT065 BKN075 16/16 A3008 RMK AO2
K5H4 140255Z AUTO 25003KT 10SM BKN120 16/16 A3006 RMK AO2
K5H4 140235Z AUTO 30004KT 10SM CLR 15/16 A3005 RMK AO2
K5H4 140215Z AUTO 00000KT 10SM FEW032 FEW055 FEW080 16/16 A3005 RMK AO2
K5H4 140155Z AUTO 36006KT 10SM CLR 16/16 A3003 RMK AO2
K5H4 140135Z AUTO 00000KT 10SM FEW060 FEW075 SCT090 16/15 A3005 RMK AO2
K5H4 140115Z AUTO 34008KT 9SM -DZ SCT060 BKN075 OVC120 16/15 A3005 RMK AO2
K5H4 140055Z AUTO 32008KT 10SM SCT060 SCT070 OVC090 17/15 A3005 RMK AO2
K5H4 140035Z AUTO 28006KT 10SM FEW055 SCT070 BKN095 17/15 A3006 RMK AO2
K5H4 140015Z AUTO 30006KT 10SM FEW044 SCT085 BKN110 17/15 A3005 RMK AO2
K5H4 132355Z AUTO 30009KT 10SM FEW070 FEW080 FEW100 18/14 A3004 RMK AO2
K5H4 132335Z AUTO 29005G10KT 10SM CLR 18/14 A3003 RMK AO2
K5H4 132315Z AUTO 33015G21KT 10SM FEW065 FEW075 SCT120 19/13 A3002 RMK AO2
K5H4 132255Z AUTO 33013KT 10SM CLR 20/13 A3001 RMK AO2
K5H4 132235Z AUTO 33018KT 10SM CLR 21/14 A3003 RMK AO2
K5H4 132215Z AUTO 32010KT 10SM CLR 20/14 A3002 RMK AO2
K5H4 132155Z AUTO 34011G19KT 10SM CLR 20/13 A3000 RMK AO2
K5H4 132135Z AUTO 33014G20KT 10SM CLR 20/15 A3000 RMK AO2
K5H4 132115Z AUTO 31013KT 5SM -RA CLR 19/17 A3003 RMK AO2
K5H4 132055Z AUTO 32014KT 10SM CLR 22/14 A3003 RMK AO2
K5H4 132035Z AUTO 32013KT 9SM -DZ CLR 23/15 A3002 RMK AO2
K5H4 132015Z AUTO 32012KT 10SM CLR 24/13 A3000 RMK AO2
K5H4 131955Z AUTO 33014KT 10SM CLR 26/13 A3001 RMK AO2
K5H4 131935Z AUTO 32012KT 10SM CLR 25/13 A3000 RMK AO2
K5H4 131915Z AUTO 33013KT 10SM CLR 24/13 A3000 RMK AO2
K5H4 131855Z AUTO 35008KT 10SM CLR 26/13 A2999 RMK AO2
K5H4 131835Z AUTO 35009G15KT 10SM CLR 25/13 A2999 RMK AO2
K5H4 131815Z AUTO 35012G18KT 10SM CLR 25/13 A2998 RMK AO2
K5H4 131755Z AUTO 35015KT 10SM CLR 25/13 A2998 RMK AO2
K5H4 131735Z AUTO 02011G17KT 10SM CLR 24/13 A2998 RMK AO2
K5H4 131715Z AUTO 35014KT 10SM CLR 24/14 A2999 RMK AO2
K5H4 131655Z AUTO 34014KT 10SM CLR 24/15 A2998 RMK AO2
K5H4 131635Z AUTO 33011KT 10SM CLR 24/15 A2996 RMK AO2
K5H4 131615Z AUTO 33012KT 10SM CLR 23/16 A2997 RMK AO2
K5H4 131555Z AUTO 32010G15KT 10SM CLR 23/15 A2996 RMK AO2
K5H4 131535Z AUTO 33009G16KT 10SM CLR 24/16 A2995 RMK AO2
K5H4 131515Z AUTO 34007G13KT 310V010 10SM CLR 23/16 A2994 RMK AO2
K5H4 131455Z AUTO 33010KT 10SM CLR 23/16 A2994 RMK AO2
K5H4 131435Z AUTO 31007KT 10SM CLR 21/16 A2994 RMK AO2
K5H4 131415Z AUTO 33010KT 10SM CLR 21/16 A2993 RMK AO2
K5H4 131355Z AUTO 31014KT 10SM CLR 21/16 A2993 RMK AO2
K5H4 131335Z AUTO 32011KT 10SM CLR 20/16 A2992 RMK AO2
K5H4 131315Z AUTO 32014KT 10SM CLR 19/16 A2992 RMK AO2
K5H4 131255Z AUTO 32009KT 10SM CLR 19/17 A2991 RMK AO2
K5H4 131235Z AUTO 31007KT 10SM CLR 19/17 A2990 RMK AO2
K5H4 131215Z AUTO 32007KT 10SM CLR 19/18 A2989 RMK AO2
K5H4 131155Z AUTO 31009KT 10SM CLR 19/18 A2989 RMK AO2
K5H4 131135Z AUTO 30010KT 10SM CLR 20/17 A2988 RMK AO2
K5H4 131115Z AUTO 28007KT 10SM CLR 19/17 A2987 RMK AO2
K5H4 131055Z AUTO 27005KT 10SM CLR 20/16 A2986 RMK AO2
K5H4 131035Z AUTO 27007KT 10SM CLR 21/16 A2986 RMK AO2
K5H4 131015Z AUTO 27007KT 10SM CLR 22/17 A2986 RMK AO2
K5H4 130955Z AUTO 29008G14KT 10SM CLR 22/17 A2986 RMK AO2
K5H4 130935Z AUTO 23007KT 10SM CLR 23/17 A2984 RMK AO2
K5H4 130915Z AUTO 21009KT 10SM CLR 23/17 A2983 RMK AO2
K5H4 130855Z AUTO 21010KT 10SM FEW048 FEW060 24/17 A2983 RMK AO2
K5H4 130835Z AUTO 20012G21KT 10SM CLR 25/17 A2982 RMK AO2
K5H4 130815Z AUTO 19013G18KT 10SM CLR 25/17 A2982 RMK AO2
K5H4 130755Z AUTO 19014G20KT 10SM CLR 25/17 A2982 RMK AO2